Britney Lee — WDC2895 — position and weather

sailwx.info

Track history (hours):
 
Tides and Currents Weather Stations Pressure Air Temp Water Temp Dewpoint Dewpoint Depression Visibility Wind Speed Wind Dir Waves Ship Positions

Britney Lee

Owner: Western Rivers Boat Management, Inc., Paducah, KY. More information available from US FCC via Universal Licensing System and Coast Guard Vessel Documentation Center.

Last reported at 2017-May-22 09:06 UTC. Time now 2017-May-30 12:44 UTC.
Position N 41°06' W 090°57'.
Warning: this ship's position is 8 days out of date.

Length 44 m; draft 3 m.

Type: Tow > 200 m length. MMSI: 367129650.

Date/timePositionNaut miles runAvg speedWind from/ knotsBaromVisibWave heightAir tempDewpointWater temp
2017-May-22 09:06N 41°06' W 090°57'0 4.4
2017-May-22 09:00N 41°06' W 090°57'2 4.1
2017-May-22 08:24N 41°03' W 090°57'2 4.1
2017-May-22 08:00N 41°02' W 090°57'2 4.3
2017-May-22 07:30N 40°59' W 090°57'2 3.9
2017-May-22 07:00N 40°58' W 090°57'2 4.1
2017-May-22 06:30N 40°55' W 090°58'2 4.1
2017-May-22 06:00N 40°54' W 091°00'2 3.8
2017-May-22 05:30N 40°53' W 091°01'0 0.3
2017-May-22 05:00N 40°53' W 091°02'0 0.1
2017-May-22 04:30N 40°53' W 091°02'2 3.5
2017-May-22 04:00N 40°51' W 091°03'0 0.0
2017-May-22 03:30N 40°51' W 091°03'0 0.6
2017-May-22 03:00N 40°51' W 091°03'3 5.2
2017-May-22 02:30N 40°49' W 091°06'2 3.5
2017-May-22 02:00N 40°48' W 091°06'  
2017-May-12 17:59N 40°43' W 091°07'3 5.9
2017-May-12 17:30N 40°46' W 091°06'2 4.1
2017-May-12 17:00N 40°48' W 091°06'1 2.5
2017-May-12 16:30N 40°49' W 091°06'3 6.4
2017-May-12 16:00N 40°52' W 091°03'2 3.1
2017-May-12 15:30N 40°53' W 091°02'0 0.3
2017-May-12 15:00N 40°53' W 091°01'0 0.2
2017-May-12 14:00N 40°53' W 091°01'0 0.6
2017-May-12 13:30N 40°53' W 091°01'1 1.3
2017-May-12 13:00N 40°54' W 091°01'3 5.9
2017-May-12 12:29N 40°56' W 090°58'3 7.0
2017-May-12 12:00N 40°59' W 090°57'  
Track history (hours):
 
Tides and Currents Weather Stations Pressure Air Temp Water Temp Dewpoint Dewpoint Depression Visibility Wind Speed Wind Dir Waves Ship Positions

Britney Lee

Owner: Western Rivers Boat Management, Inc., Paducah, KY. More information available from US FCC via Universal Licensing System and Coast Guard Vessel Documentation Center.

Last reported at 2017-May-22 09:06 UTC. Time now 2017-May-30 12:44 UTC.
Position N 41°06' W 090°57'.
Warning: this ship's position is 8 days out of date.

Length 44 m; draft 3 m.

Type: Tow > 200 m length. MMSI: 367129650.

Date/timePositionNaut miles runAvg speedWind from/ knotsBaromVisibWave heightAir tempDewpointWater temp
2017-May-22 09:06N 41°06' W 090°57'0 4.4
2017-May-22 09:00N 41°06' W 090°57'2 4.1
2017-May-22 08:24N 41°03' W 090°57'2 4.1
2017-May-22 08:00N 41°02' W 090°57'2 4.3
2017-May-22 07:30N 40°59' W 090°57'2 3.9
2017-May-22 07:00N 40°58' W 090°57'2 4.1
2017-May-22 06:30N 40°55' W 090°58'2 4.1
2017-May-22 06:00N 40°54' W 091°00'2 3.8
2017-May-22 05:30N 40°53' W 091°01'0 0.3
2017-May-22 05:00N 40°53' W 091°02'0 0.1
2017-May-22 04:30N 40°53' W 091°02'2 3.5
2017-May-22 04:00N 40°51' W 091°03'0 0.0
2017-May-22 03:30N 40°51' W 091°03'0 0.6
2017-May-22 03:00N 40°51' W 091°03'3 5.2
2017-May-22 02:30N 40°49' W 091°06'2 3.5
2017-May-22 02:00N 40°48' W 091°06'  
2017-May-12 17:59N 40°43' W 091°07'3 5.9
2017-May-12 17:30N 40°46' W 091°06'2 4.1
2017-May-12 17:00N 40°48' W 091°06'1 2.5
2017-May-12 16:30N 40°49' W 091°06'3 6.4
2017-May-12 16:00N 40°52' W 091°03'2 3.1
2017-May-12 15:30N 40°53' W 091°02'0 0.3
2017-May-12 15:00N 40°53' W 091°01'0 0.2
2017-May-12 14:00N 40°53' W 091°01'0 0.6
2017-May-12 13:30N 40°53' W 091°01'1 1.3
2017-May-12 13:00N 40°54' W 091°01'3 5.9
2017-May-12 12:29N 40°56' W 090°58'3 7.0
2017-May-12 12:00N 40°59' W 090°57'  

Dump ship's entire track history